sensor_id;sensor_type;location;lat;lon;timestamp;P1;durP1;ratioP1;P2;durP2;ratioP2
85377;SDS011;75782;48.632;10.230;2024-02-21T00:01:32;11.87;;;5.80;;
85377;SDS011;75782;48.632;10.230;2024-02-21T00:03:59;11.13;;;6.03;;
85377;SDS011;75782;48.632;10.230;2024-02-21T00:06:26;12.90;;;5.87;;
85377;SDS011;75782;48.632;10.230;2024-02-21T00:08:52;15.80;;;6.87;;
85377;SDS011;75782;48.632;10.230;2024-02-21T00:11:19;8.53;;;5.80;;
85377;SDS011;75782;48.632;10.230;2024-02-21T00:13:45;10.73;;;6.03;;
85377;SDS011;75782;48.632;10.230;2024-02-21T00:16:12;13.70;;;6.73;;
85377;SDS011;75782;48.632;10.230;2024-02-21T00:18:39;19.23;;;6.60;;
85377;SDS011;75782;48.632;10.230;2024-02-21T00:21:06;10.00;;;5.60;;
85377;SDS011;75782;48.632;10.230;2024-02-21T00:23:33;13.50;;;5.70;;
85377;SDS011;75782;48.632;10.230;2024-02-21T00:25:59;12.77;;;5.57;;
85377;SDS011;75782;48.632;10.230;2024-02-21T00:28:26;13.03;;;4.80;;
85377;SDS011;75782;48.632;10.230;2024-02-21T00:30:54;10.00;;;5.40;;
85377;SDS011;75782;48.632;10.230;2024-02-21T00:33:20;6.13;;;4.67;;
85377;SDS011;75782;48.632;10.230;2024-02-21T00:35:47;11.80;;;5.20;;
85377;SDS011;75782;48.632;10.230;2024-02-21T00:38:14;8.03;;;5.60;;
85377;SDS011;75782;48.632;10.230;2024-02-21T00:40:40;10.90;;;5.10;;
85377;SDS011;75782;48.632;10.230;2024-02-21T00:43:07;8.17;;;5.00;;
85377;SDS011;75782;48.632;10.230;2024-02-21T00:45:34;9.40;;;4.90;;
85377;SDS011;75782;48.632;10.230;2024-02-21T00:48:01;7.37;;;5.13;;
85377;SDS011;75782;48.632;10.230;2024-02-21T00:50:27;9.57;;;4.43;;
85377;SDS011;75782;48.632;10.230;2024-02-21T00:52:54;9.13;;;4.87;;
85377;SDS011;75782;48.632;10.230;2024-02-21T00:55:21;9.40;;;5.27;;
85377;SDS011;75782;48.632;10.230;2024-02-21T00:57:47;9.33;;;4.90;;
85377;SDS011;75782;48.632;10.230;2024-02-21T01:00:14;11.47;;;4.83;;
85377;SDS011;75782;48.632;10.230;2024-02-21T01:02:41;8.13;;;4.27;;
85377;SDS011;75782;48.632;10.230;2024-02-21T01:05:07;10.70;;;4.50;;
85377;SDS011;75782;48.632;10.230;2024-02-21T01:07:34;15.57;;;5.00;;
85377;SDS011;75782;48.632;10.230;2024-02-21T01:10:00;12.03;;;4.07;;
85377;SDS011;75782;48.632;10.230;2024-02-21T01:12:27;9.80;;;4.63;;
85377;SDS011;75782;48.632;10.230;2024-02-21T01:14:54;9.43;;;4.70;;
85377;SDS011;75782;48.632;10.230;2024-02-21T01:17:21;10.27;;;4.33;;
85377;SDS011;75782;48.632;10.230;2024-02-21T01:19:48;7.77;;;4.80;;
85377;SDS011;75782;48.632;10.230;2024-02-21T01:22:15;10.77;;;4.40;;
85377;SDS011;75782;48.632;10.230;2024-02-21T01:24:41;7.07;;;5.27;;
85377;SDS011;75782;48.632;10.230;2024-02-21T01:27:08;8.30;;;4.33;;
85377;SDS011;75782;48.632;10.230;2024-02-21T01:29:35;11.67;;;5.10;;
85377;SDS011;75782;48.632;10.230;2024-02-21T01:32:01;9.80;;;5.00;;
85377;SDS011;75782;48.632;10.230;2024-02-21T01:34:28;10.47;;;5.07;;
85377;SDS011;75782;48.632;10.230;2024-02-21T01:36:54;9.60;;;5.07;;
85377;SDS011;75782;48.632;10.230;2024-02-21T01:39:22;12.10;;;4.70;;
85377;SDS011;75782;48.632;10.230;2024-02-21T01:41:49;9.90;;;4.50;;
85377;SDS011;75782;48.632;10.230;2024-02-21T01:44:16;7.70;;;4.20;;
85377;SDS011;75782;48.632;10.230;2024-02-21T01:46:44;10.37;;;5.40;;
85377;SDS011;75782;48.632;10.230;2024-02-21T01:49:10;9.67;;;4.57;;
85377;SDS011;75782;48.632;10.230;2024-02-21T01:51:37;9.63;;;5.00;;
85377;SDS011;75782;48.632;10.230;2024-02-21T01:54:04;12.10;;;5.10;;
85377;SDS011;75782;48.632;10.230;2024-02-21T01:56:30;11.77;;;5.30;;
85377;SDS011;75782;48.632;10.230;2024-02-21T01:58:57;5.87;;;3.93;;
85377;SDS011;75782;48.632;10.230;2024-02-21T02:01:24;14.10;;;6.60;;
85377;SDS011;75782;48.632;10.230;2024-02-21T02:03:52;8.67;;;3.97;;
85377;SDS011;75782;48.632;10.230;2024-02-21T02:06:19;8.50;;;4.40;;
85377;SDS011;75782;48.632;10.230;2024-02-21T02:08:45;8.73;;;4.10;;
85377;SDS011;75782;48.632;10.230;2024-02-21T02:11:13;8.77;;;4.30;;
85377;SDS011;75782;48.632;10.230;2024-02-21T02:13:40;8.63;;;4.57;;
85377;SDS011;75782;48.632;10.230;2024-02-21T02:16:06;9.60;;;5.70;;
85377;SDS011;75782;48.632;10.230;2024-02-21T02:18:33;9.83;;;4.87;;
85377;SDS011;75782;48.632;10.230;2024-02-21T02:21:00;9.37;;;4.40;;
85377;SDS011;75782;48.632;10.230;2024-02-21T02:23:28;8.63;;;4.37;;
85377;SDS011;75782;48.632;10.230;2024-02-21T02:25:55;9.07;;;4.33;;
85377;SDS011;75782;48.632;10.230;2024-02-21T02:28:22;10.10;;;5.27;;
85377;SDS011;75782;48.632;10.230;2024-02-21T02:30:50;7.57;;;4.43;;
85377;SDS011;75782;48.632;10.230;2024-02-21T02:33:17;8.33;;;4.53;;
85377;SDS011;75782;48.632;10.230;2024-02-21T02:35:44;9.83;;;4.60;;
85377;SDS011;75782;48.632;10.230;2024-02-21T02:38:10;6.77;;;3.77;;
85377;SDS011;75782;48.632;10.230;2024-02-21T02:40:37;6.87;;;4.00;;
85377;SDS011;75782;48.632;10.230;2024-02-21T02:43:03;10.33;;;4.27;;
85377;SDS011;75782;48.632;10.230;2024-02-21T02:45:30;6.80;;;3.60;;
85377;SDS011;75782;48.632;10.230;2024-02-21T02:47:57;7.73;;;3.63;;
85377;SDS011;75782;48.632;10.230;2024-02-21T02:50:24;9.00;;;3.40;;
85377;SDS011;75782;48.632;10.230;2024-02-21T02:52:50;8.57;;;3.87;;
85377;SDS011;75782;48.632;10.230;2024-02-21T02:55:17;9.83;;;3.80;;
85377;SDS011;75782;48.632;10.230;2024-02-21T02:57:44;7.73;;;4.07;;
85377;SDS011;75782;48.632;10.230;2024-02-21T03:00:10;11.13;;;3.87;;
85377;SDS011;75782;48.632;10.230;2024-02-21T03:02:38;7.80;;;3.80;;
85377;SDS011;75782;48.632;10.230;2024-02-21T03:05:11;9.03;;;4.13;;
85377;SDS011;75782;48.632;10.230;2024-02-21T03:07:31;8.83;;;4.90;;
85377;SDS011;75782;48.632;10.230;2024-02-21T03:09:58;5.90;;;3.60;;
85377;SDS011;75782;48.632;10.230;2024-02-21T03:12:26;6.90;;;4.03;;
85377;SDS011;75782;48.632;10.230;2024-02-21T03:14:53;8.70;;;3.93;;
85377;SDS011;75782;48.632;10.230;2024-02-21T03:17:21;7.10;;;4.23;;
85377;SDS011;75782;48.632;10.230;2024-02-21T03:19:48;6.47;;;3.80;;
85377;SDS011;75782;48.632;10.230;2024-02-21T03:22:14;8.47;;;3.50;;
85377;SDS011;75782;48.632;10.230;2024-02-21T03:24:41;12.63;;;4.10;;
85377;SDS011;75782;48.632;10.230;2024-02-21T03:27:07;7.03;;;3.77;;
85377;SDS011;75782;48.632;10.230;2024-02-21T03:29:34;6.03;;;3.80;;
85377;SDS011;75782;48.632;10.230;2024-02-21T03:32:01;6.40;;;4.00;;
85377;SDS011;75782;48.632;10.230;2024-02-21T03:34:28;8.60;;;3.60;;
85377;SDS011;75782;48.632;10.230;2024-02-21T03:36:54;8.13;;;3.87;;
85377;SDS011;75782;48.632;10.230;2024-02-21T03:39:21;9.23;;;5.70;;
85377;SDS011;75782;48.632;10.230;2024-02-21T03:41:48;5.83;;;4.60;;
85377;SDS011;75782;48.632;10.230;2024-02-21T03:44:15;9.00;;;3.60;;
85377;SDS011;75782;48.632;10.230;2024-02-21T03:46:41;9.97;;;3.70;;
85377;SDS011;75782;48.632;10.230;2024-02-21T03:49:09;8.30;;;4.17;;
85377;SDS011;75782;48.632;10.230;2024-02-21T03:51:36;7.43;;;3.80;;
85377;SDS011;75782;48.632;10.230;2024-02-21T03:54:03;10.60;;;3.97;;
85377;SDS011;75782;48.632;10.230;2024-02-21T03:56:29;6.90;;;3.27;;
85377;SDS011;75782;48.632;10.230;2024-02-21T03:58:56;7.53;;;3.77;;
85377;SDS011;75782;48.632;10.230;2024-02-21T04:01:22;9.53;;;5.10;;
85377;SDS011;75782;48.632;10.230;2024-02-21T04:03:49;10.00;;;3.63;;
85377;SDS011;75782;48.632;10.230;2024-02-21T04:06:15;6.93;;;3.57;;
85377;SDS011;75782;48.632;10.230;2024-02-21T04:08:42;7.13;;;3.83;;
85377;SDS011;75782;48.632;10.230;2024-02-21T04:11:09;11.17;;;3.53;;
85377;SDS011;75782;48.632;10.230;2024-02-21T04:13:37;4.63;;;3.03;;
85377;SDS011;75782;48.632;10.230;2024-02-21T04:16:04;5.87;;;4.17;;
85377;SDS011;75782;48.632;10.230;2024-02-21T04:18:31;9.33;;;4.20;;
85377;SDS011;75782;48.632;10.230;2024-02-21T04:20:58;8.90;;;4.13;;
85377;SDS011;75782;48.632;10.230;2024-02-21T04:23:24;9.27;;;4.40;;
85377;SDS011;75782;48.632;10.230;2024-02-21T04:25:50;6.77;;;4.50;;
85377;SDS011;75782;48.632;10.230;2024-02-21T04:28:17;12.80;;;5.10;;
85377;SDS011;75782;48.632;10.230;2024-02-21T04:30:44;10.40;;;5.00;;
85377;SDS011;75782;48.632;10.230;2024-02-21T04:33:10;7.60;;;4.77;;
85377;SDS011;75782;48.632;10.230;2024-02-21T04:35:38;17.50;;;5.80;;
85377;SDS011;75782;48.632;10.230;2024-02-21T04:38:05;9.57;;;4.73;;
85377;SDS011;75782;48.632;10.230;2024-02-21T04:40:32;8.43;;;4.33;;
85377;SDS011;75782;48.632;10.230;2024-02-21T04:42:58;8.53;;;4.47;;
85377;SDS011;75782;48.632;10.230;2024-02-21T04:45:25;5.50;;;4.20;;
85377;SDS011;75782;48.632;10.230;2024-02-21T04:47:51;8.40;;;4.57;;
85377;SDS011;75782;48.632;10.230;2024-02-21T04:50:18;8.20;;;4.23;;
85377;SDS011;75782;48.632;10.230;2024-02-21T04:52:45;14.17;;;5.27;;
85377;SDS011;75782;48.632;10.230;2024-02-21T04:55:11;10.10;;;4.80;;
85377;SDS011;75782;48.632;10.230;2024-02-21T04:57:38;9.40;;;5.03;;
85377;SDS011;75782;48.632;10.230;2024-02-21T05:00:06;11.97;;;5.03;;
85377;SDS011;75782;48.632;10.230;2024-02-21T05:02:33;11.50;;;5.60;;
85377;SDS011;75782;48.632;10.230;2024-02-21T05:05:00;8.07;;;5.13;;
85377;SDS011;75782;48.632;10.230;2024-02-21T05:07:26;14.83;;;5.10;;
85377;SDS011;75782;48.632;10.230;2024-02-21T05:09:53;6.80;;;4.70;;
85377;SDS011;75782;48.632;10.230;2024-02-21T05:12:20;9.90;;;5.30;;
85377;SDS011;75782;48.632;10.230;2024-02-21T05:14:47;11.90;;;5.33;;
85377;SDS011;75782;48.632;10.230;2024-02-21T05:17:13;10.83;;;6.40;;
85377;SDS011;75782;48.632;10.230;2024-02-21T05:19:40;8.30;;;4.80;;
85377;SDS011;75782;48.632;10.230;2024-02-21T05:22:08;8.83;;;5.10;;
85377;SDS011;75782;48.632;10.230;2024-02-21T05:24:35;14.47;;;6.20;;
85377;SDS011;75782;48.632;10.230;2024-02-21T05:27:02;9.63;;;5.43;;
85377;SDS011;75782;48.632;10.230;2024-02-21T05:29:29;16.23;;;6.10;;
85377;SDS011;75782;48.632;10.230;2024-02-21T05:31:56;10.07;;;6.73;;
85377;SDS011;75782;48.632;10.230;2024-02-21T05:34:22;12.23;;;6.00;;
85377;SDS011;75782;48.632;10.230;2024-02-21T05:36:49;15.60;;;6.10;;
85377;SDS011;75782;48.632;10.230;2024-02-21T05:39:17;10.50;;;6.47;;
85377;SDS011;75782;48.632;10.230;2024-02-21T05:41:44;12.00;;;5.63;;
85377;SDS011;75782;48.632;10.230;2024-02-21T05:44:11;10.57;;;6.47;;
85377;SDS011;75782;48.632;10.230;2024-02-21T05:46:38;15.73;;;7.00;;
85377;SDS011;75782;48.632;10.230;2024-02-21T05:49:05;8.97;;;4.90;;
85377;SDS011;75782;48.632;10.230;2024-02-21T05:51:32;19.50;;;6.87;;
85377;SDS011;75782;48.632;10.230;2024-02-21T05:53:59;9.10;;;5.73;;
85377;SDS011;75782;48.632;10.230;2024-02-21T05:56:25;8.87;;;5.13;;
85377;SDS011;75782;48.632;10.230;2024-02-21T05:58:52;9.10;;;5.57;;
85377;SDS011;75782;48.632;10.230;2024-02-21T06:01:18;7.73;;;4.13;;
85377;SDS011;75782;48.632;10.230;2024-02-21T06:03:45;6.03;;;4.47;;
85377;SDS011;75782;48.632;10.230;2024-02-21T06:06:12;11.30;;;4.53;;
85377;SDS011;75782;48.632;10.230;2024-02-21T06:08:39;8.60;;;4.57;;
85377;SDS011;75782;48.632;10.230;2024-02-21T06:11:06;12.27;;;4.80;;
85377;SDS011;75782;48.632;10.230;2024-02-21T06:13:33;7.27;;;4.90;;
85377;SDS011;75782;48.632;10.230;2024-02-21T06:15:59;12.73;;;5.10;;
85377;SDS011;75782;48.632;10.230;2024-02-21T06:18:26;8.50;;;4.77;;
85377;SDS011;75782;48.632;10.230;2024-02-21T06:20:53;14.47;;;5.73;;
85377;SDS011;75782;48.632;10.230;2024-02-21T06:23:19;11.13;;;4.97;;
85377;SDS011;75782;48.632;10.230;2024-02-21T06:25:46;7.70;;;4.87;;
85377;SDS011;75782;48.632;10.230;2024-02-21T06:28:13;10.93;;;4.63;;
85377;SDS011;75782;48.632;10.230;2024-02-21T06:30:40;9.53;;;5.33;;
85377;SDS011;75782;48.632;10.230;2024-02-21T06:33:07;11.33;;;5.10;;
85377;SDS011;75782;48.632;10.230;2024-02-21T06:35:35;6.80;;;4.47;;
85377;SDS011;75782;48.632;10.230;2024-02-21T06:38:02;10.67;;;5.10;;
85377;SDS011;75782;48.632;10.230;2024-02-21T06:40:29;6.47;;;5.67;;
85377;SDS011;75782;48.632;10.230;2024-02-21T06:42:56;9.30;;;5.70;;
85377;SDS011;75782;48.632;10.230;2024-02-21T06:45:22;9.00;;;5.00;;
85377;SDS011;75782;48.632;10.230;2024-02-21T06:47:49;8.80;;;5.40;;
85377;SDS011;75782;48.632;10.230;2024-02-21T06:50:16;9.60;;;5.37;;
85377;SDS011;75782;48.632;10.230;2024-02-21T06:52:42;8.67;;;4.60;;
85377;SDS011;75782;48.632;10.230;2024-02-21T06:55:09;10.53;;;5.00;;
85377;SDS011;75782;48.632;10.230;2024-02-21T06:57:35;10.63;;;5.23;;
85377;SDS011;75782;48.632;10.230;2024-02-21T07:00:03;13.93;;;5.50;;
85377;SDS011;75782;48.632;10.230;2024-02-21T07:02:30;9.90;;;5.50;;
85377;SDS011;75782;48.632;10.230;2024-02-21T07:04:56;9.93;;;6.10;;
85377;SDS011;75782;48.632;10.230;2024-02-21T07:07:23;8.53;;;4.90;;
85377;SDS011;75782;48.632;10.230;2024-02-21T07:09:50;7.10;;;4.97;;
85377;SDS011;75782;48.632;10.230;2024-02-21T07:12:17;7.83;;;5.07;;
85377;SDS011;75782;48.632;10.230;2024-02-21T07:14:44;7.90;;;5.43;;
85377;SDS011;75782;48.632;10.230;2024-02-21T07:17:12;7.67;;;5.37;;
85377;SDS011;75782;48.632;10.230;2024-02-21T07:19:39;8.07;;;6.00;;
85377;SDS011;75782;48.632;10.230;2024-02-21T07:22:06;10.53;;;7.33;;
85377;SDS011;75782;48.632;10.230;2024-02-21T07:24:32;9.47;;;5.50;;
85377;SDS011;75782;48.632;10.230;2024-02-21T07:26:59;9.47;;;6.60;;
85377;SDS011;75782;48.632;10.230;2024-02-21T07:29:26;12.97;;;6.53;;
85377;SDS011;75782;48.632;10.230;2024-02-21T07:31:53;10.57;;;6.80;;
85377;SDS011;75782;48.632;10.230;2024-02-21T07:34:20;9.50;;;6.00;;
85377;SDS011;75782;48.632;10.230;2024-02-21T07:36:47;8.57;;;6.20;;
85377;SDS011;75782;48.632;10.230;2024-02-21T07:39:13;6.60;;;5.90;;
85377;SDS011;75782;48.632;10.230;2024-02-21T07:41:40;10.10;;;7.27;;
85377;SDS011;75782;48.632;10.230;2024-02-21T07:44:06;8.13;;;7.10;;
85377;SDS011;75782;48.632;10.230;2024-02-21T07:46:34;8.93;;;6.87;;
85377;SDS011;75782;48.632;10.230;2024-02-21T07:49:00;9.70;;;7.20;;
85377;SDS011;75782;48.632;10.230;2024-02-21T07:51:27;9.00;;;6.70;;
85377;SDS011;75782;48.632;10.230;2024-02-21T07:53:54;10.70;;;6.57;;
85377;SDS011;75782;48.632;10.230;2024-02-21T07:56:20;8.03;;;6.27;;
85377;SDS011;75782;48.632;10.230;2024-02-21T07:58:48;9.57;;;6.97;;
85377;SDS011;75782;48.632;10.230;2024-02-21T08:01:18;11.77;;;6.47;;
85377;SDS011;75782;48.632;10.230;2024-02-21T08:03:45;7.57;;;6.70;;
85377;SDS011;75782;48.632;10.230;2024-02-21T08:06:12;8.30;;;6.70;;
85377;SDS011;75782;48.632;10.230;2024-02-21T08:08:38;10.03;;;6.00;;
85377;SDS011;75782;48.632;10.230;2024-02-21T08:11:05;7.37;;;6.10;;
85377;SDS011;75782;48.632;10.230;2024-02-21T08:13:31;13.73;;;6.57;;
85377;SDS011;75782;48.632;10.230;2024-02-21T08:15:58;10.17;;;7.23;;
85377;SDS011;75782;48.632;10.230;2024-02-21T08:18:25;9.57;;;5.33;;
85377;SDS011;75782;48.632;10.230;2024-02-21T08:20:52;10.17;;;6.20;;
85377;SDS011;75782;48.632;10.230;2024-02-21T08:23:18;8.90;;;7.40;;
85377;SDS011;75782;48.632;10.230;2024-02-21T08:25:45;8.60;;;6.00;;
85377;SDS011;75782;48.632;10.230;2024-02-21T08:28:11;7.97;;;5.87;;
85377;SDS011;75782;48.632;10.230;2024-02-21T08:30:39;8.17;;;5.90;;
85377;SDS011;75782;48.632;10.230;2024-02-21T08:33:05;6.57;;;5.70;;
85377;SDS011;75782;48.632;10.230;2024-02-21T08:35:33;7.07;;;5.90;;
85377;SDS011;75782;48.632;10.230;2024-02-21T08:37:59;5.87;;;5.23;;
85377;SDS011;75782;48.632;10.230;2024-02-21T08:40:26;9.07;;;5.93;;
85377;SDS011;75782;48.632;10.230;2024-02-21T08:42:53;9.00;;;6.57;;
85377;SDS011;75782;48.632;10.230;2024-02-21T08:45:20;10.47;;;4.80;;
85377;SDS011;75782;48.632;10.230;2024-02-21T08:47:47;7.80;;;5.47;;
85377;SDS011;75782;48.632;10.230;2024-02-21T08:50:13;8.50;;;5.30;;
85377;SDS011;75782;48.632;10.230;2024-02-21T08:52:40;9.00;;;5.13;;
85377;SDS011;75782;48.632;10.230;2024-02-21T08:55:06;6.20;;;4.60;;
85377;SDS011;75782;48.632;10.230;2024-02-21T08:57:33;7.27;;;5.43;;
85377;SDS011;75782;48.632;10.230;2024-02-21T09:00:00;10.63;;;4.93;;
85377;SDS011;75782;48.632;10.230;2024-02-21T09:02:26;9.70;;;5.00;;
85377;SDS011;75782;48.632;10.230;2024-02-21T09:04:53;6.43;;;4.60;;
85377;SDS011;75782;48.632;10.230;2024-02-21T09:07:19;5.70;;;5.00;;
85377;SDS011;75782;48.632;10.230;2024-02-21T09:09:46;7.03;;;5.30;;
85377;SDS011;75782;48.632;10.230;2024-02-21T09:12:13;8.27;;;5.30;;
85377;SDS011;75782;48.632;10.230;2024-02-21T09:14:39;10.80;;;6.00;;
85377;SDS011;75782;48.632;10.230;2024-02-21T09:17:06;6.23;;;5.07;;
85377;SDS011;75782;48.632;10.230;2024-02-21T09:19:33;6.77;;;4.63;;
85377;SDS011;75782;48.632;10.230;2024-02-21T09:21:59;7.10;;;5.40;;
85377;SDS011;75782;48.632;10.230;2024-02-21T09:24:26;8.10;;;5.00;;
85377;SDS011;75782;48.632;10.230;2024-02-21T09:26:53;8.00;;;4.80;;
85377;SDS011;75782;48.632;10.230;2024-02-21T09:29:20;7.90;;;4.97;;
85377;SDS011;75782;48.632;10.230;2024-02-21T09:31:46;5.10;;;3.90;;
85377;SDS011;75782;48.632;10.230;2024-02-21T09:34:13;7.70;;;4.70;;
85377;SDS011;75782;48.632;10.230;2024-02-21T09:36:40;10.43;;;5.03;;
85377;SDS011;75782;48.632;10.230;2024-02-21T09:39:07;6.10;;;4.30;;
85377;SDS011;75782;48.632;10.230;2024-02-21T09:41:33;6.97;;;4.77;;
85377;SDS011;75782;48.632;10.230;2024-02-21T09:44:00;8.17;;;4.77;;
85377;SDS011;75782;48.632;10.230;2024-02-21T09:46:38;9.53;;;5.03;;
85377;SDS011;75782;48.632;10.230;2024-02-21T09:51:49;8.93;;;5.10;;
85377;SDS011;75782;48.632;10.230;2024-02-21T09:54:14;6.90;;;5.10;;
85377;SDS011;75782;48.632;10.230;2024-02-21T09:56:42;8.23;;;4.97;;
85377;SDS011;75782;48.632;10.230;2024-02-21T09:59:08;7.77;;;4.90;;
85377;SDS011;75782;48.632;10.230;2024-02-21T10:01:35;7.87;;;4.77;;
85377;SDS011;75782;48.632;10.230;2024-02-21T10:04:02;6.37;;;5.03;;
85377;SDS011;75782;48.632;10.230;2024-02-21T10:06:28;8.07;;;4.30;;
85377;SDS011;75782;48.632;10.230;2024-02-21T10:08:56;6.90;;;4.97;;
85377;SDS011;75782;48.632;10.230;2024-02-21T10:11:23;8.57;;;4.40;;
85377;SDS011;75782;48.632;10.230;2024-02-21T10:13:49;4.90;;;4.40;;
85377;SDS011;75782;48.632;10.230;2024-02-21T10:16:16;6.10;;;4.50;;
85377;SDS011;75782;48.632;10.230;2024-02-21T10:18:43;7.60;;;5.20;;
85377;SDS011;75782;48.632;10.230;2024-02-21T10:21:10;11.83;;;5.20;;
85377;SDS011;75782;48.632;10.230;2024-02-21T10:23:42;8.57;;;5.90;;
85377;SDS011;75782;48.632;10.230;2024-02-21T10:26:11;7.07;;;4.90;;
85377;SDS011;75782;48.632;10.230;2024-02-21T10:28:37;8.40;;;4.50;;
85377;SDS011;75782;48.632;10.230;2024-02-21T10:31:04;7.60;;;4.90;;
85377;SDS011;75782;48.632;10.230;2024-02-21T10:33:31;8.80;;;5.00;;
85377;SDS011;75782;48.632;10.230;2024-02-21T10:38:34;6.27;;;5.27;;
85377;SDS011;75782;48.632;10.230;2024-02-21T10:41:00;7.83;;;4.60;;
85377;SDS011;75782;48.632;10.230;2024-02-21T10:43:27;8.77;;;5.10;;
85377;SDS011;75782;48.632;10.230;2024-02-21T10:45:53;7.53;;;4.43;;
85377;SDS011;75782;48.632;10.230;2024-02-21T10:48:22;9.13;;;4.07;;
85377;SDS011;75782;48.632;10.230;2024-02-21T10:50:56;5.67;;;3.80;;
85377;SDS011;75782;48.632;10.230;2024-02-21T10:56:28;6.47;;;4.27;;
85377;SDS011;75782;48.632;10.230;2024-02-21T10:58:55;7.83;;;4.43;;
85377;SDS011;75782;48.632;10.230;2024-02-21T11:01:21;5.67;;;3.80;;
85377;SDS011;75782;48.632;10.230;2024-02-21T11:03:48;8.00;;;5.23;;
85377;SDS011;75782;48.632;10.230;2024-02-21T11:06:15;8.63;;;4.80;;
85377;SDS011;75782;48.632;10.230;2024-02-21T11:08:41;4.53;;;4.10;;
85377;SDS011;75782;48.632;10.230;2024-02-21T11:11:08;9.77;;;3.70;;
85377;SDS011;75782;48.632;10.230;2024-02-21T11:13:35;5.77;;;3.90;;
85377;SDS011;75782;48.632;10.230;2024-02-21T11:16:07;10.13;;;5.07;;
85377;SDS011;75782;48.632;10.230;2024-02-21T11:18:33;5.93;;;3.87;;
85377;SDS011;75782;48.632;10.230;2024-02-21T11:21:00;7.70;;;4.77;;
85377;SDS011;75782;48.632;10.230;2024-02-21T11:23:27;7.50;;;4.87;;
85377;SDS011;75782;48.632;10.230;2024-02-21T11:26:03;6.00;;;3.60;;
85377;SDS011;75782;48.632;10.230;2024-02-21T11:28:25;8.83;;;3.53;;
85377;SDS011;75782;48.632;10.230;2024-02-21T11:30:48;8.70;;;4.13;;
85377;SDS011;75782;48.632;10.230;2024-02-21T11:33:15;10.13;;;3.93;;
85377;SDS011;75782;48.632;10.230;2024-02-21T11:35:41;4.20;;;3.80;;
85377;SDS011;75782;48.632;10.230;2024-02-21T11:38:08;9.23;;;4.57;;
85377;SDS011;75782;48.632;10.230;2024-02-21T11:40:38;4.20;;;3.60;;
85377;SDS011;75782;48.632;10.230;2024-02-21T11:43:03;7.23;;;3.93;;
85377;SDS011;75782;48.632;10.230;2024-02-21T11:45:30;6.50;;;3.83;;
85377;SDS011;75782;48.632;10.230;2024-02-21T11:47:56;4.40;;;3.07;;
85377;SDS011;75782;48.632;10.230;2024-02-21T11:50:24;4.23;;;3.50;;
85377;SDS011;75782;48.632;10.230;2024-02-21T11:52:51;4.60;;;3.03;;
85377;SDS011;75782;48.632;10.230;2024-02-21T11:55:18;3.37;;;3.07;;
85377;SDS011;75782;48.632;10.230;2024-02-21T11:57:47;4.60;;;3.20;;
85377;SDS011;75782;48.632;10.230;2024-02-21T12:00:13;3.27;;;2.97;;
85377;SDS011;75782;48.632;10.230;2024-02-21T12:02:39;4.10;;;2.80;;
85377;SDS011;75782;48.632;10.230;2024-02-21T12:05:06;3.07;;;2.40;;
85377;SDS011;75782;48.632;10.230;2024-02-21T12:07:33;4.50;;;3.23;;
85377;SDS011;75782;48.632;10.230;2024-02-21T12:10:00;2.63;;;2.40;;
85377;SDS011;75782;48.632;10.230;2024-02-21T12:12:26;3.80;;;2.80;;
85377;SDS011;75782;48.632;10.230;2024-02-21T12:14:55;6.20;;;2.83;;
85377;SDS011;75782;48.632;10.230;2024-02-21T12:17:22;2.80;;;2.60;;
85377;SDS011;75782;48.632;10.230;2024-02-21T12:19:50;3.37;;;2.47;;
85377;SDS011;75782;48.632;10.230;2024-02-21T12:22:17;3.73;;;2.37;;
85377;SDS011;75782;48.632;10.230;2024-02-21T12:24:45;4.20;;;2.70;;
85377;SDS011;75782;48.632;10.230;2024-02-21T12:27:12;5.80;;;2.17;;
85377;SDS011;75782;48.632;10.230;2024-02-21T12:29:39;2.10;;;2.00;;
85377;SDS011;75782;48.632;10.230;2024-02-21T12:32:05;4.03;;;2.23;;
85377;SDS011;75782;48.632;10.230;2024-02-21T12:34:32;3.57;;;2.67;;
85377;SDS011;75782;48.632;10.230;2024-02-21T12:36:59;4.13;;;2.60;;
85377;SDS011;75782;48.632;10.230;2024-02-21T12:39:26;3.53;;;2.53;;
85377;SDS011;75782;48.632;10.230;2024-02-21T12:41:54;3.07;;;2.37;;
85377;SDS011;75782;48.632;10.230;2024-02-21T12:44:20;5.73;;;2.87;;
85377;SDS011;75782;48.632;10.230;2024-02-21T12:46:47;4.20;;;2.67;;
85377;SDS011;75782;48.632;10.230;2024-02-21T12:49:14;3.37;;;2.43;;
85377;SDS011;75782;48.632;10.230;2024-02-21T12:51:41;2.40;;;2.20;;
85377;SDS011;75782;48.632;10.230;2024-02-21T12:54:08;2.57;;;2.37;;
85377;SDS011;75782;48.632;10.230;2024-02-21T12:56:35;4.47;;;2.60;;
85377;SDS011;75782;48.632;10.230;2024-02-21T12:59:01;2.73;;;2.53;;
85377;SDS011;75782;48.632;10.230;2024-02-21T13:01:29;3.50;;;2.30;;
85377;SDS011;75782;48.632;10.230;2024-02-21T13:03:56;2.60;;;2.23;;
85377;SDS011;75782;48.632;10.230;2024-02-21T13:06:23;3.43;;;2.63;;
85377;SDS011;75782;48.632;10.230;2024-02-21T13:08:50;3.87;;;2.00;;
85377;SDS011;75782;48.632;10.230;2024-02-21T13:11:16;6.00;;;2.43;;
85377;SDS011;75782;48.632;10.230;2024-02-21T13:13:42;2.83;;;2.07;;
85377;SDS011;75782;48.632;10.230;2024-02-21T13:16:09;5.90;;;2.23;;
85377;SDS011;75782;48.632;10.230;2024-02-21T13:18:36;4.03;;;2.20;;
85377;SDS011;75782;48.632;10.230;2024-02-21T13:21:05;3.40;;;2.10;;
85377;SDS011;75782;48.632;10.230;2024-02-21T13:23:33;4.57;;;2.40;;
85377;SDS011;75782;48.632;10.230;2024-02-21T13:26:00;3.20;;;2.40;;
85377;SDS011;75782;48.632;10.230;2024-02-21T13:28:27;2.90;;;1.90;;
85377;SDS011;75782;48.632;10.230;2024-02-21T13:30:54;2.80;;;2.17;;
85377;SDS011;75782;48.632;10.230;2024-02-21T13:33:21;5.50;;;2.20;;
85377;SDS011;75782;48.632;10.230;2024-02-21T13:35:47;3.53;;;2.00;;
85377;SDS011;75782;48.632;10.230;2024-02-21T13:38:14;4.70;;;2.20;;
85377;SDS011;75782;48.632;10.230;2024-02-21T13:40:41;2.50;;;1.73;;
85377;SDS011;75782;48.632;10.230;2024-02-21T13:43:07;2.73;;;2.33;;
85377;SDS011;75782;48.632;10.230;2024-02-21T13:45:34;4.40;;;2.40;;
85377;SDS011;75782;48.632;10.230;2024-02-21T13:48:01;3.80;;;2.10;;
85377;SDS011;75782;48.632;10.230;2024-02-21T13:50:30;3.30;;;2.60;;
85377;SDS011;75782;48.632;10.230;2024-02-21T13:52:56;3.23;;;2.40;;
85377;SDS011;75782;48.632;10.230;2024-02-21T13:55:23;6.37;;;2.60;;
85377;SDS011;75782;48.632;10.230;2024-02-21T13:57:52;2.30;;;2.10;;
85377;SDS011;75782;48.632;10.230;2024-02-21T14:00:18;3.17;;;2.30;;
85377;SDS011;75782;48.632;10.230;2024-02-21T14:02:45;2.10;;;1.83;;
85377;SDS011;75782;48.632;10.230;2024-02-21T14:05:12;2.87;;;2.50;;
85377;SDS011;75782;48.632;10.230;2024-02-21T14:07:38;4.53;;;2.00;;
85377;SDS011;75782;48.632;10.230;2024-02-21T14:10:05;2.67;;;2.23;;
85377;SDS011;75782;48.632;10.230;2024-02-21T14:12:33;1.80;;;1.70;;
85377;SDS011;75782;48.632;10.230;2024-02-21T14:14:59;2.87;;;2.00;;
85377;SDS011;75782;48.632;10.230;2024-02-21T14:17:26;5.90;;;2.17;;
85377;SDS011;75782;48.632;10.230;2024-02-21T14:19:52;4.17;;;1.93;;
85377;SDS011;75782;48.632;10.230;2024-02-21T14:22:20;4.23;;;1.73;;
85377;SDS011;75782;48.632;10.230;2024-02-21T14:24:47;3.53;;;1.70;;
85377;SDS011;75782;48.632;10.230;2024-02-21T14:27:14;2.73;;;1.90;;
85377;SDS011;75782;48.632;10.230;2024-02-21T14:29:40;3.67;;;1.90;;
85377;SDS011;75782;48.632;10.230;2024-02-21T14:32:07;5.70;;;2.37;;
85377;SDS011;75782;48.632;10.230;2024-02-21T14:34:34;2.80;;;1.77;;
85377;SDS011;75782;48.632;10.230;2024-02-21T14:37:01;2.63;;;2.07;;